Upland, Indiana
Current Conditions -  °F | °C
As of 11:11 AM on Thursday 27 Nov 2014 (Local Time) from KMIE Reporting Station
Light Snow Light Snow  
Wind Chill: 19°   Ceiling: 1100
Heat Index: 29°   Visibility: 1.7mi
Dew Point: 25°   Wind: 13mph
Humidity: 85%   Direction: 290°WNW
Pressure: 30.27"   Gusts: NA
Location:  40.48°N, 85.49°W
Report Text: KMIE 271611Z 29011KT 1 3/4SM -SN BR OVC011 M02/M04 A3027 RMK AO2 P0000 T10171039
Loading
Personal Weather Stations






























Interactive Weather Map New forecast layout! Learn more

10-Day Weather Forecast

Advertisements
Track Severe Weather on mobile